GTI849 MMMX-KPDX
Flight info
| Callsign | GTI849 |
|---|---|
| Flight time | N/A |
| Altitude | FL360 |
| Route | ATUR2A ATURO UT133 OTAKA UT134 ZCL UT10 SETRO UT12 VYLLA J92 TUS J11 CORKR Q35 IMB JOTBA HHOOD5 |
| Aircraft | B748/H-SABDE1E2FGIJ1J3J4J5J6J7M2M3P1P2RTUVW/NACEHB1B2U1V1V2D1G1 |
Departure
| Time | 2026-05-06 17:25 |
|---|---|
| Airport | Mexico City Benito Juárez International Airport (MMMX) |
Arrival
| Time | N/A |
|---|---|
| Airport | Portland International Airport (KPDX) |
| Time | Latitude | Longitude | Altitude | Speed | Heading |
|---|---|---|---|---|---|
| 2026-05-06 16:54 | 19.43987 | -99.07398 | 7330 ft | 0 kts | 329° |
| 2026-05-06 17:05 | 19.43980 | -99.07394 | 7330 ft | 0 kts | 329° |
| 2026-05-06 17:05 | 19.43969 | -99.07386 | 7330 ft | 0 kts | 329° |
| 2026-05-06 17:06 | 19.43957 | -99.07379 | 7330 ft | 0 kts | 329° |
| 2026-05-06 17:06 | 19.43946 | -99.07372 | 7330 ft | 0 kts | 329° |
| 2026-05-06 17:06 | 19.43934 | -99.07364 | 7330 ft | 0 kts | 314° |
| 2026-05-06 17:06 | 19.43929 | -99.07350 | 7330 ft | 0 kts | 269° |
| 2026-05-06 17:07 | 19.43934 | -99.07337 | 7330 ft | 0 kts | 240° |
| 2026-05-06 17:12 | 19.43934 | -99.07338 | 7330 ft | 0 kts | 240° |
| 2026-05-06 17:12 | 19.43931 | -99.07342 | 7330 ft | 4 kts | 240° |
| 2026-05-06 17:12 | 19.43915 | -99.07372 | 7330 ft | 9 kts | 240° |
| 2026-05-06 17:13 | 19.43882 | -99.07432 | 7330 ft | 8 kts | 239° |
| 2026-05-06 17:13 | 19.43850 | -99.07487 | 7330 ft | 12 kts | 238° |
| 2026-05-06 17:13 | 19.43812 | -99.07553 | 7330 ft | 4 kts | 238° |
| 2026-05-06 17:13 | 19.43811 | -99.07554 | 7330 ft | 1 kts | 238° |
| 2026-05-06 17:14 | 19.43818 | -99.07542 | 7330 ft | 2 kts | 238° |
| 2026-05-06 17:14 | 19.43828 | -99.07525 | 7330 ft | 3 kts | 238° |
| 2026-05-06 17:14 | 19.43839 | -99.07507 | 7330 ft | 3 kts | 238° |
| 2026-05-06 17:14 | 19.43849 | -99.07489 | 7330 ft | 3 kts | 238° |
| 2026-05-06 17:15 | 19.43857 | -99.07476 | 7330 ft | 0 kts | 238° |
| 2026-05-06 17:15 | 19.43850 | -99.07483 | 7330 ft | 2 kts | 223° |
| 2026-05-06 17:15 | 19.43818 | -99.07486 | 7330 ft | 7 kts | 163° |
| 2026-05-06 17:15 | 19.43787 | -99.07455 | 7330 ft | 6 kts | 131° |
| 2026-05-06 17:16 | 19.43739 | -99.07403 | 7330 ft | 11 kts | 135° |
| 2026-05-06 17:16 | 19.43683 | -99.07348 | 7330 ft | 13 kts | 137° |
| 2026-05-06 17:16 | 19.43616 | -99.07283 | 7330 ft | 14 kts | 138° |
| 2026-05-06 17:16 | 19.43540 | -99.07211 | 7330 ft | 16 kts | 138° |
| 2026-05-06 17:17 | 19.43465 | -99.07139 | 7330 ft | 15 kts | 137° |
| 2026-05-06 17:17 | 19.43387 | -99.07064 | 7330 ft | 15 kts | 137° |
| 2026-05-06 17:17 | 19.43323 | -99.07043 | 7330 ft | 7 kts | 200° |
| 2026-05-06 17:17 | 19.43298 | -99.07067 | 7330 ft | 7 kts | 226° |
| 2026-05-06 17:18 | 19.43259 | -99.07127 | 7330 ft | 13 kts | 238° |
| 2026-05-06 17:18 | 19.43211 | -99.07209 | 7330 ft | 14 kts | 239° |
| 2026-05-06 17:18 | 19.43176 | -99.07316 | 7330 ft | 16 kts | 260° |
| 2026-05-06 17:18 | 19.43145 | -99.07439 | 7330 ft | 18 kts | 245° |
| 2026-05-06 17:19 | 19.43084 | -99.07553 | 7330 ft | 17 kts | 238° |
| 2026-05-06 17:19 | 19.43026 | -99.07654 | 7330 ft | 18 kts | 239° |
| 2026-05-06 17:19 | 19.42956 | -99.07776 | 7330 ft | 20 kts | 239° |
| 2026-05-06 17:19 | 19.42889 | -99.07890 | 7330 ft | 19 kts | 233° |
| 2026-05-06 17:20 | 19.42788 | -99.07982 | 7330 ft | 19 kts | 210° |
| 2026-05-06 17:20 | 19.42712 | -99.08032 | 7330 ft | 15 kts | 216° |
| 2026-05-06 17:20 | 19.42649 | -99.08113 | 7330 ft | 11 kts | 240° |
| 2026-05-06 17:20 | 19.42603 | -99.08190 | 7330 ft | 8 kts | 236° |
| 2026-05-06 17:21 | 19.42579 | -99.08229 | 7330 ft | 6 kts | 237° |
| 2026-05-06 17:21 | 19.42544 | -99.08291 | 7330 ft | 14 kts | 239° |
| 2026-05-06 17:21 | 19.42491 | -99.08387 | 7330 ft | 14 kts | 239° |
| 2026-05-06 17:21 | 19.42476 | -99.08476 | 7330 ft | 12 kts | 283° |
| 2026-05-06 17:22 | 19.42506 | -99.08562 | 7330 ft | 13 kts | 292° |
| 2026-05-06 17:22 | 19.42534 | -99.08632 | 7330 ft | 11 kts | 293° |
| 2026-05-06 17:22 | 19.42560 | -99.08696 | 7330 ft | 7 kts | 293° |
| 2026-05-06 17:22 | 19.42592 | -99.08728 | 7330 ft | 5 kts | 343° |
| 2026-05-06 17:23 | 19.42618 | -99.08721 | 7330 ft | 4 kts | 28° |
| 2026-05-06 17:23 | 19.42638 | -99.08687 | 7330 ft | 8 kts | 61° |
| 2026-05-06 17:23 | 19.42667 | -99.08633 | 7330 ft | 12 kts | 60° |
| 2026-05-06 17:23 | 19.42757 | -99.08472 | 7330 ft | 53 kts | 58° |
| 2026-05-06 17:24 | 19.43076 | -99.07913 | 7330 ft | 124 kts | 59° |
| 2026-05-06 17:24 | 19.43631 | -99.06932 | 7330 ft | 185 kts | 58° |
| 2026-05-06 17:24 | 19.44371 | -99.05647 | 7401 ft | 221 kts | 58° |
| 2026-05-06 17:24 | 19.45192 | -99.04201 | 7850 ft | 237 kts | 58° |
| 2026-05-06 17:25 | 19.46075 | -99.02646 | 8378 ft | 256 kts | 58° |
| 2026-05-06 17:25 | 19.47032 | -99.00962 | 8878 ft | 279 kts | 59° |
| 2026-05-06 17:25 | 19.48077 | -98.99126 | 9369 ft | 304 kts | 59° |
| 2026-05-06 17:25 | 19.49210 | -98.97135 | 9887 ft | 322 kts | 59° |
| 2026-05-06 17:26 | 19.50325 | -98.95174 | 10357 ft | 303 kts | 59° |
| 2026-05-06 17:26 | 19.51419 | -98.93250 | 10868 ft | 308 kts | 59° |
| 2026-05-06 17:26 | 19.52563 | -98.91300 | 11384 ft | 313 kts | 56° |
| 2026-05-06 17:26 | 19.53911 | -98.89483 | 11896 ft | 314 kts | 49° |
| 2026-05-06 17:27 | 19.55379 | -98.87768 | 12397 ft | 315 kts | 48° |
| 2026-05-06 17:27 | 19.56872 | -98.86048 | 12903 ft | 324 kts | 48° |
| 2026-05-06 17:27 | 19.58453 | -98.84230 | 13194 ft | 346 kts | 48° |
| 2026-05-06 17:27 | 19.60138 | -98.82297 | 13507 ft | 369 kts | 48° |
| 2026-05-06 17:28 | 19.61940 | -98.80231 | 13823 ft | 393 kts | 48° |
| 2026-05-06 17:28 | 19.63822 | -98.78075 | 14544 ft | 402 kts | 48° |
| 2026-05-06 17:28 | 19.65721 | -98.75899 | 15593 ft | 404 kts | 48° |
| 2026-05-06 17:28 | 19.67641 | -98.73691 | 16395 ft | 411 kts | 48° |
| 2026-05-06 17:29 | 19.69788 | -98.71648 | 17087 ft | 419 kts | 36° |
| 2026-05-06 17:29 | 19.72418 | -98.70303 | 17855 ft | 425 kts | 19° |
| 2026-05-06 17:29 | 19.75346 | -98.69720 | 18546 ft | 432 kts | 7° |
| 2026-05-06 17:29 | 19.78351 | -98.69470 | 19197 ft | 439 kts | 6° |
| 2026-05-06 17:30 | 19.81424 | -98.69238 | 19756 ft | 446 kts | 5° |
| 2026-05-06 17:30 | 19.84543 | -98.69028 | 20401 ft | 451 kts | 5° |
| 2026-05-06 17:30 | 19.87684 | -98.68827 | 20991 ft | 456 kts | 5° |
| 2026-05-06 17:30 | 19.90870 | -98.68621 | 21552 ft | 460 kts | 5° |
| 2026-05-06 17:31 | 19.94070 | -98.68509 | 22083 ft | 466 kts | 359° |
| 2026-05-06 17:31 | 19.97274 | -98.69095 | 22545 ft | 471 kts | 342° |
| 2026-05-06 17:31 | 20.00235 | -98.70585 | 23027 ft | 474 kts | 327° |
| 2026-05-06 17:31 | 20.02884 | -98.72684 | 23528 ft | 477 kts | 321° |
| 2026-05-06 17:32 | 20.05544 | -98.74785 | 24007 ft | 480 kts | 323° |
| 2026-05-06 17:32 | 20.08230 | -98.76910 | 24500 ft | 482 kts | 322° |
| 2026-05-06 17:32 | 20.10952 | -98.79013 | 24986 ft | 485 kts | 322° |
| 2026-05-06 17:32 | 20.13695 | -98.81124 | 25382 ft | 488 kts | 323° |
| 2026-05-06 17:33 | 20.16425 | -98.83256 | 25791 ft | 490 kts | 321° |
| 2026-05-06 17:33 | 20.19178 | -98.85418 | 26178 ft | 493 kts | 322° |
| 2026-05-06 17:33 | 20.21930 | -98.87620 | 26551 ft | 495 kts | 319° |
| 2026-05-06 17:33 | 20.24384 | -98.90153 | 26883 ft | 494 kts | 308° |
| 2026-05-06 17:34 | 20.26375 | -98.93124 | 27234 ft | 493 kts | 300° |
| 2026-05-06 17:34 | 20.28164 | -98.96222 | 27746 ft | 491 kts | 299° |
| 2026-05-06 17:34 | 20.29954 | -98.99335 | 28013 ft | 494 kts | 299° |
| 2026-05-06 17:34 | 20.31742 | -99.02477 | 28291 ft | 496 kts | 299° |
| 2026-05-06 17:35 | 20.33530 | -99.05629 | 28589 ft | 498 kts | 298° |
| 2026-05-06 17:35 | 20.35322 | -99.08787 | 28866 ft | 500 kts | 298° |
| 2026-05-06 17:35 | 20.37126 | -99.11972 | 29021 ft | 504 kts | 299° |
| 2026-05-06 17:36 | 20.42534 | -99.21501 | 29200 ft | 500 kts | 299° |
| 2026-05-06 17:36 | 20.44465 | -99.24606 | 29368 ft | 506 kts | 303° |
| 2026-05-06 17:36 | 20.46619 | -99.27571 | 29572 ft | 509 kts | 306° |
| 2026-05-06 17:37 | 20.48822 | -99.30528 | 29999 ft | 506 kts | 307° |
| 2026-05-06 17:37 | 20.51004 | -99.33456 | 30342 ft | 506 kts | 306° |
| 2026-05-06 17:37 | 20.55416 | -99.39406 | 30369 ft | 517 kts | 306° |
| 2026-05-06 17:38 | 20.59849 | -99.45419 | 30364 ft | 515 kts | 306° |
| 2026-05-06 17:38 | 20.64266 | -99.51442 | 30359 ft | 516 kts | 306° |
| 2026-05-06 17:39 | 20.68653 | -99.57486 | 30349 ft | 516 kts | 306° |
| 2026-05-06 17:39 | 20.73053 | -99.63537 | 30335 ft | 516 kts | 306° |
| 2026-05-06 17:40 | 20.77437 | -99.69582 | 30330 ft | 516 kts | 306° |
| 2026-05-06 17:40 | 20.81826 | -99.75650 | 30325 ft | 517 kts | 306° |
| 2026-05-06 17:41 | 20.86207 | -99.81720 | 30320 ft | 515 kts | 305° |
| 2026-05-06 17:41 | 20.89868 | -99.86759 | 30316 ft | 516 kts | 305° |
| 2026-05-06 17:42 | 20.94265 | -99.92821 | 30301 ft | 515 kts | 305° |
| 2026-05-06 17:42 | 20.98639 | -99.98872 | 30294 ft | 515 kts | 305° |
| 2026-05-06 17:43 | 21.03017 | -100.04946 | 30289 ft | 515 kts | 305° |
| 2026-05-06 17:43 | 21.07389 | -100.11025 | 30284 ft | 515 kts | 305° |
| 2026-05-06 17:44 | 21.11779 | -100.17085 | 30283 ft | 515 kts | 305° |
| 2026-05-06 17:44 | 21.16156 | -100.23151 | 30283 ft | 515 kts | 305° |
| 2026-05-06 17:45 | 21.20530 | -100.29235 | 30282 ft | 516 kts | 304° |
| 2026-05-06 17:45 | 21.24888 | -100.35317 | 30281 ft | 516 kts | 304° |
| 2026-05-06 17:46 | 21.29275 | -100.41427 | 30281 ft | 519 kts | 304° |
| 2026-05-06 17:46 | 21.33654 | -100.47510 | 30281 ft | 513 kts | 304° |
| 2026-05-06 17:47 | 21.37996 | -100.53591 | 30281 ft | 515 kts | 304° |
| 2026-05-06 17:47 | 21.42319 | -100.59709 | 30281 ft | 514 kts | 304° |
| 2026-05-06 17:48 | 21.46635 | -100.65820 | 30280 ft | 514 kts | 304° |
| 2026-05-06 17:48 | 21.50968 | -100.71915 | 30281 ft | 514 kts | 304° |
| 2026-05-06 17:49 | 21.55315 | -100.78028 | 30281 ft | 515 kts | 304° |
| 2026-05-06 17:49 | 21.59642 | -100.84131 | 30281 ft | 515 kts | 304° |
| 2026-05-06 17:50 | 21.63982 | -100.90265 | 30280 ft | 515 kts | 304° |
| 2026-05-06 17:50 | 21.68301 | -100.96376 | 30280 ft | 515 kts | 304° |
| 2026-05-06 17:51 | 21.72654 | -101.02489 | 30281 ft | 515 kts | 304° |
| 2026-05-06 17:51 | 21.76996 | -101.08613 | 30281 ft | 513 kts | 304° |
| 2026-05-06 17:52 | 21.81298 | -101.14701 | 30281 ft | 512 kts | 304° |
| 2026-05-06 17:52 | 21.85594 | -101.20798 | 30280 ft | 512 kts | 304° |
| 2026-05-06 17:53 | 21.89906 | -101.26907 | 30281 ft | 512 kts | 304° |
| 2026-05-06 17:53 | 21.94220 | -101.33002 | 30281 ft | 510 kts | 303° |
| 2026-05-06 17:54 | 21.98505 | -101.39082 | 30282 ft | 511 kts | 303° |
| 2026-05-06 17:54 | 22.02790 | -101.45181 | 30282 ft | 511 kts | 303° |
| 2026-05-06 17:55 | 22.07065 | -101.51291 | 30280 ft | 511 kts | 303° |
| 2026-05-06 17:55 | 22.11322 | -101.57405 | 30280 ft | 511 kts | 303° |
| 2026-05-06 17:56 | 22.15592 | -101.63526 | 30281 ft | 511 kts | 303° |
| 2026-05-06 17:56 | 22.19850 | -101.69638 | 30280 ft | 510 kts | 303° |
| 2026-05-06 17:57 | 22.24111 | -101.75763 | 30280 ft | 510 kts | 303° |
| 2026-05-06 17:57 | 22.28357 | -101.81871 | 30280 ft | 507 kts | 303° |
| 2026-05-06 17:58 | 22.32595 | -101.87926 | 30280 ft | 507 kts | 303° |
| 2026-05-06 17:58 | 22.36844 | -101.94019 | 30279 ft | 507 kts | 303° |
| 2026-05-06 17:59 | 22.41065 | -102.00094 | 30280 ft | 507 kts | 303° |
| 2026-05-06 17:59 | 22.45284 | -102.06181 | 30280 ft | 507 kts | 302° |
| 2026-05-06 18:00 | 22.49512 | -102.12280 | 30281 ft | 507 kts | 303° |
| 2026-05-06 18:00 | 22.53736 | -102.18355 | 30283 ft | 506 kts | 302° |
| 2026-05-06 18:01 | 22.57953 | -102.24451 | 30285 ft | 506 kts | 302° |
| 2026-05-06 18:01 | 22.62165 | -102.30560 | 30284 ft | 510 kts | 302° |
| 2026-05-06 18:02 | 22.66395 | -102.36711 | 30282 ft | 509 kts | 302° |
| 2026-05-06 18:02 | 22.70634 | -102.42857 | 30282 ft | 509 kts | 302° |
| 2026-05-06 18:03 | 22.74856 | -102.48994 | 30279 ft | 509 kts | 302° |
| 2026-05-06 18:03 | 22.79059 | -102.55156 | 30279 ft | 506 kts | 302° |
| 2026-05-06 18:04 | 22.83234 | -102.61272 | 30280 ft | 505 kts | 302° |
| 2026-05-06 18:04 | 22.87475 | -102.67336 | 30280 ft | 508 kts | 305° |
| 2026-05-06 18:05 | 22.92322 | -102.72950 | 30282 ft | 511 kts | 309° |
| 2026-05-06 18:05 | 22.97254 | -102.78469 | 30281 ft | 510 kts | 310° |
| 2026-05-06 18:06 | 23.02187 | -102.84002 | 30265 ft | 510 kts | 310° |
| 2026-05-06 18:06 | 23.07120 | -102.89542 | 30257 ft | 510 kts | 309° |
| 2026-05-06 18:07 | 23.12051 | -102.95090 | 30251 ft | 510 kts | 309° |
| 2026-05-06 18:07 | 23.16987 | -103.00614 | 30245 ft | 511 kts | 310° |
| 2026-05-06 18:08 | 23.21930 | -103.06156 | 30242 ft | 510 kts | 310° |
| 2026-05-06 18:08 | 23.26849 | -103.11692 | 30242 ft | 510 kts | 309° |
| 2026-05-06 18:09 | 23.31760 | -103.17236 | 30228 ft | 509 kts | 309° |
| 2026-05-06 18:09 | 23.36661 | -103.22776 | 30220 ft | 509 kts | 309° |
| 2026-05-06 18:10 | 23.41595 | -103.28323 | 30210 ft | 511 kts | 309° |
| 2026-05-06 18:10 | 23.46532 | -103.33902 | 30199 ft | 512 kts | 309° |
| 2026-05-06 18:11 | 23.51464 | -103.39497 | 30184 ft | 512 kts | 309° |
| 2026-05-06 18:11 | 23.56380 | -103.45091 | 30172 ft | 512 kts | 309° |
| 2026-05-06 18:12 | 23.61321 | -103.50701 | 30158 ft | 512 kts | 309° |
| 2026-05-06 18:12 | 23.66230 | -103.56311 | 30143 ft | 512 kts | 309° |
| 2026-05-06 18:13 | 23.71154 | -103.61934 | 30131 ft | 512 kts | 309° |
| 2026-05-06 18:13 | 23.76071 | -103.67545 | 30118 ft | 512 kts | 308° |
| 2026-05-06 18:14 | 23.80979 | -103.73126 | 30105 ft | 510 kts | 309° |
| 2026-05-06 18:14 | 23.85919 | -103.78674 | 30091 ft | 511 kts | 309° |
| 2026-05-06 18:15 | 23.90847 | -103.84260 | 30083 ft | 510 kts | 308° |
| 2026-05-06 18:15 | 23.95751 | -103.89857 | 30069 ft | 510 kts | 308° |
| 2026-05-06 18:16 | 24.00650 | -103.95468 | 30061 ft | 510 kts | 308° |
| 2026-05-06 18:16 | 24.05538 | -104.01080 | 30051 ft | 510 kts | 308° |
| 2026-05-06 18:17 | 24.10443 | -104.06692 | 30041 ft | 510 kts | 308° |
| 2026-05-06 18:17 | 24.15340 | -104.12318 | 30033 ft | 511 kts | 308° |
| 2026-05-06 18:18 | 24.20226 | -104.17953 | 30020 ft | 510 kts | 308° |
| 2026-05-06 18:18 | 24.25095 | -104.23581 | 30013 ft | 510 kts | 308° |
| 2026-05-06 18:19 | 24.29951 | -104.29202 | 30006 ft | 506 kts | 307° |
| 2026-05-06 18:19 | 24.34833 | -104.34779 | 30001 ft | 508 kts | 308° |
| 2026-05-06 18:20 | 24.39745 | -104.40328 | 29994 ft | 507 kts | 308° |
| 2026-05-06 18:20 | 24.44637 | -104.45907 | 29993 ft | 507 kts | 308° |
| 2026-05-06 18:21 | 24.49495 | -104.51493 | 29992 ft | 507 kts | 307° |
| 2026-05-06 18:21 | 24.54329 | -104.57135 | 29992 ft | 507 kts | 307° |
| 2026-05-06 18:22 | 24.59143 | -104.62759 | 29993 ft | 507 kts | 307° |
| 2026-05-06 18:22 | 24.63999 | -104.68387 | 29992 ft | 507 kts | 307° |
| 2026-05-06 18:23 | 24.68834 | -104.74002 | 29992 ft | 507 kts | 307° |
| 2026-05-06 18:23 | 24.73679 | -104.79649 | 29991 ft | 509 kts | 307° |
| 2026-05-06 18:24 | 24.78514 | -104.85299 | 29990 ft | 506 kts | 307° |
| 2026-05-06 18:24 | 24.83344 | -104.90941 | 29992 ft | 507 kts | 307° |
| 2026-05-06 18:25 | 24.88184 | -104.96569 | 29991 ft | 507 kts | 307° |
| 2026-05-06 18:25 | 24.93016 | -105.02216 | 29992 ft | 507 kts | 307° |
| 2026-05-06 18:26 | 24.97833 | -105.07864 | 29992 ft | 507 kts | 307° |
| 2026-05-06 18:26 | 25.02649 | -105.13527 | 29992 ft | 507 kts | 307° |
| 2026-05-06 18:27 | 25.07479 | -105.19191 | 29994 ft | 507 kts | 307° |
| 2026-05-06 18:27 | 25.12302 | -105.24848 | 29993 ft | 507 kts | 307° |
| 2026-05-06 18:28 | 25.17126 | -105.30530 | 29993 ft | 509 kts | 307° |
| 2026-05-06 18:28 | 25.21962 | -105.36247 | 29992 ft | 509 kts | 307° |
| 2026-05-06 18:29 | 25.26781 | -105.41957 | 29991 ft | 510 kts | 307° |
| 2026-05-06 18:29 | 25.31612 | -105.47652 | 29992 ft | 504 kts | 307° |
| 2026-05-06 18:30 | 25.36398 | -105.53333 | 29992 ft | 506 kts | 306° |
| 2026-05-06 18:30 | 25.41164 | -105.59026 | 29992 ft | 505 kts | 306° |
| 2026-05-06 18:31 | 25.45942 | -105.64728 | 29992 ft | 506 kts | 306° |
| 2026-05-06 18:31 | 25.50716 | -105.70421 | 29992 ft | 505 kts | 306° |
| 2026-05-06 18:32 | 25.55495 | -105.76128 | 29992 ft | 505 kts | 306° |
| 2026-05-06 18:32 | 25.60259 | -105.81811 | 29991 ft | 503 kts | 307° |
| 2026-05-06 18:33 | 25.65054 | -105.87463 | 29992 ft | 504 kts | 307° |
| 2026-05-06 18:33 | 25.69858 | -105.93114 | 29991 ft | 504 kts | 307° |
| 2026-05-06 18:34 | 25.74633 | -105.98777 | 29992 ft | 504 kts | 307° |
| 2026-05-06 18:34 | 25.79409 | -106.04469 | 29993 ft | 504 kts | 306° |
| 2026-05-06 18:35 | 25.84176 | -106.10173 | 29992 ft | 504 kts | 306° |
| 2026-05-06 18:35 | 25.88130 | -106.14918 | 29993 ft | 503 kts | 306° |
| 2026-05-06 18:36 | 25.92888 | -106.20594 | 29993 ft | 503 kts | 306° |
| 2026-05-06 18:36 | 25.97647 | -106.26294 | 29992 ft | 503 kts | 306° |
| 2026-05-06 18:37 | 26.02381 | -106.31991 | 29993 ft | 502 kts | 306° |
| 2026-05-06 18:37 | 26.07113 | -106.37703 | 29994 ft | 502 kts | 306° |
| 2026-05-06 18:38 | 26.11831 | -106.43407 | 29993 ft | 502 kts | 306° |
| 2026-05-06 18:38 | 26.16578 | -106.49116 | 29993 ft | 502 kts | 306° |
| 2026-05-06 18:39 | 26.21277 | -106.54834 | 29993 ft | 502 kts | 306° |
| 2026-05-06 18:40 | 26.28342 | -106.63438 | 29991 ft | 503 kts | 305° |
| 2026-05-06 18:40 | 26.33063 | -106.69183 | 29991 ft | 503 kts | 305° |
| 2026-05-06 18:41 | 26.37791 | -106.74939 | 29992 ft | 503 kts | 305° |
| 2026-05-06 18:41 | 26.42516 | -106.80683 | 29991 ft | 504 kts | 305° |
| 2026-05-06 18:42 | 26.47292 | -106.86408 | 29991 ft | 504 kts | 305° |
| 2026-05-06 18:42 | 26.52041 | -106.92156 | 29990 ft | 504 kts | 305° |
| 2026-05-06 18:43 | 26.56768 | -106.97927 | 29990 ft | 504 kts | 305° |
| 2026-05-06 18:43 | 26.61477 | -107.03697 | 29991 ft | 503 kts | 305° |
| 2026-05-06 18:44 | 26.66193 | -107.09488 | 29991 ft | 504 kts | 305° |
| 2026-05-06 18:44 | 26.70915 | -107.15274 | 29991 ft | 504 kts | 305° |
| 2026-05-06 18:45 | 26.75633 | -107.21051 | 29991 ft | 504 kts | 305° |
| 2026-05-06 18:45 | 26.80325 | -107.26824 | 29992 ft | 498 kts | 304° |
| 2026-05-06 18:46 | 26.84963 | -107.32551 | 29991 ft | 498 kts | 304° |
| 2026-05-06 18:46 | 26.89624 | -107.38313 | 29992 ft | 499 kts | 304° |
| 2026-05-06 18:47 | 26.94259 | -107.44060 | 29991 ft | 498 kts | 304° |
| 2026-05-06 18:47 | 26.98906 | -107.49822 | 29992 ft | 498 kts | 304° |
| 2026-05-06 18:48 | 27.03535 | -107.55584 | 29991 ft | 498 kts | 304° |
| 2026-05-06 18:48 | 27.08182 | -107.61334 | 29992 ft | 498 kts | 304° |
| 2026-05-06 18:49 | 27.12869 | -107.67070 | 29993 ft | 498 kts | 304° |
| 2026-05-06 18:49 | 27.17518 | -107.72812 | 29992 ft | 498 kts | 304° |
| 2026-05-06 18:50 | 27.22161 | -107.78582 | 29992 ft | 498 kts | 304° |
| 2026-05-06 18:50 | 27.26783 | -107.84347 | 29990 ft | 497 kts | 303° |
| 2026-05-06 18:51 | 27.31398 | -107.90121 | 29989 ft | 496 kts | 303° |
| 2026-05-06 18:51 | 27.36002 | -107.95868 | 29990 ft | 496 kts | 303° |
| 2026-05-06 18:52 | 27.40626 | -108.01635 | 29989 ft | 496 kts | 303° |
| 2026-05-06 18:52 | 27.45226 | -108.07403 | 29990 ft | 496 kts | 303° |
| 2026-05-06 18:53 | 27.49824 | -108.13191 | 29990 ft | 496 kts | 303° |
| 2026-05-06 18:53 | 27.54401 | -108.18981 | 29991 ft | 496 kts | 303° |
| 2026-05-06 18:54 | 27.58984 | -108.24747 | 29992 ft | 491 kts | 303° |
| 2026-05-06 18:54 | 27.63530 | -108.30479 | 29993 ft | 490 kts | 303° |
| 2026-05-06 18:55 | 27.68063 | -108.36219 | 29993 ft | 490 kts | 303° |
| 2026-05-06 18:55 | 27.72582 | -108.41954 | 29993 ft | 490 kts | 303° |
| 2026-05-06 18:56 | 27.77111 | -108.47711 | 29992 ft | 490 kts | 303° |
| 2026-05-06 18:56 | 27.81608 | -108.53431 | 29992 ft | 486 kts | 303° |
| 2026-05-06 18:57 | 27.86150 | -108.59123 | 29991 ft | 488 kts | 303° |
| 2026-05-06 18:57 | 27.90659 | -108.64818 | 29992 ft | 487 kts | 303° |
| 2026-05-06 18:58 | 27.95171 | -108.70551 | 29992 ft | 487 kts | 303° |
| 2026-05-06 18:58 | 27.99656 | -108.76266 | 29992 ft | 487 kts | 303° |
| 2026-05-06 18:59 | 28.04141 | -108.81994 | 29993 ft | 485 kts | 303° |
| 2026-05-06 18:59 | 28.08607 | -108.87707 | 29992 ft | 486 kts | 303° |
| 2026-05-06 19:00 | 28.13083 | -108.93437 | 29991 ft | 486 kts | 303° |
| 2026-05-06 19:00 | 28.17554 | -108.99166 | 29991 ft | 486 kts | 303° |
| 2026-05-06 19:01 | 28.22028 | -109.04903 | 29992 ft | 486 kts | 303° |
| 2026-05-06 19:01 | 28.26510 | -109.10616 | 29991 ft | 486 kts | 303° |
| 2026-05-06 19:02 | 28.31022 | -109.16313 | 29991 ft | 484 kts | 303° |
| 2026-05-06 19:02 | 28.35489 | -109.22011 | 29991 ft | 485 kts | 302° |
| 2026-05-06 19:03 | 28.39954 | -109.27742 | 30028 ft | 483 kts | 302° |
| 2026-05-06 19:03 | 28.44401 | -109.33479 | 30048 ft | 484 kts | 302° |
| 2026-05-06 19:04 | 28.48838 | -109.39227 | 30054 ft | 484 kts | 302° |
| 2026-05-06 19:04 | 28.53267 | -109.44968 | 30060 ft | 484 kts | 302° |
| 2026-05-06 19:05 | 28.57719 | -109.50726 | 30065 ft | 484 kts | 302° |
| 2026-05-06 19:05 | 28.62118 | -109.56486 | 30069 ft | 484 kts | 302° |
| 2026-05-06 19:06 | 28.66531 | -109.62271 | 30064 ft | 483 kts | 302° |
| 2026-05-06 19:06 | 28.70920 | -109.68027 | 30048 ft | 482 kts | 302° |
| 2026-05-06 19:07 | 28.75338 | -109.73791 | 30041 ft | 483 kts | 302° |
| 2026-05-06 19:07 | 28.79748 | -109.79534 | 30034 ft | 482 kts | 302° |
| 2026-05-06 19:08 | 28.84158 | -109.85302 | 30029 ft | 482 kts | 302° |
| 2026-05-06 19:08 | 28.88547 | -109.91062 | 30025 ft | 482 kts | 302° |
| 2026-05-06 19:09 | 28.92935 | -109.96838 | 30022 ft | 482 kts | 302° |
| 2026-05-06 19:09 | 28.97326 | -110.02593 | 30017 ft | 481 kts | 302° |
| 2026-05-06 19:10 | 29.01715 | -110.08344 | 30012 ft | 481 kts | 302° |
| 2026-05-06 19:10 | 29.06100 | -110.14123 | 30008 ft | 481 kts | 302° |
| 2026-05-06 19:11 | 29.10477 | -110.19912 | 30004 ft | 481 kts | 302° |
| 2026-05-06 19:11 | 29.14843 | -110.25698 | 30002 ft | 481 kts | 301° |
| 2026-05-06 19:12 | 29.19226 | -110.31486 | 30002 ft | 481 kts | 302° |
| 2026-05-06 19:12 | 29.23591 | -110.37266 | 30001 ft | 481 kts | 301° |
| 2026-05-06 19:13 | 29.27957 | -110.43078 | 29999 ft | 480 kts | 301° |
| 2026-05-06 19:13 | 29.32290 | -110.48863 | 29999 ft | 480 kts | 301° |
| 2026-05-06 19:14 | 29.36655 | -110.54663 | 30000 ft | 481 kts | 301° |
| 2026-05-06 19:14 | 29.41045 | -110.60423 | 30000 ft | 481 kts | 301° |
| 2026-05-06 19:15 | 29.45423 | -110.66210 | 30001 ft | 480 kts | 301° |
| 2026-05-06 19:15 | 29.49775 | -110.71998 | 30003 ft | 480 kts | 301° |
| 2026-05-06 19:16 | 29.54118 | -110.77819 | 30008 ft | 480 kts | 301° |
| 2026-05-06 19:16 | 29.58444 | -110.83640 | 30014 ft | 479 kts | 301° |
| 2026-05-06 19:17 | 29.62785 | -110.89458 | 30015 ft | 480 kts | 301° |
| 2026-05-06 19:17 | 29.67131 | -110.95261 | 30018 ft | 480 kts | 301° |
| 2026-05-06 19:18 | 29.71478 | -111.01092 | 30019 ft | 480 kts | 301° |
| 2026-05-06 19:18 | 29.75798 | -111.06913 | 30023 ft | 479 kts | 301° |
| 2026-05-06 19:19 | 29.80123 | -111.12758 | 30025 ft | 479 kts | 301° |
| 2026-05-06 19:19 | 29.84449 | -111.18592 | 30027 ft | 480 kts | 301° |
| 2026-05-06 19:20 | 29.88785 | -111.24415 | 30031 ft | 480 kts | 301° |
| 2026-05-06 19:20 | 29.93113 | -111.30259 | 30032 ft | 479 kts | 301° |
| 2026-05-06 19:21 | 29.97427 | -111.36111 | 30034 ft | 479 kts | 301° |
| 2026-05-06 19:21 | 30.01730 | -111.41969 | 30037 ft | 479 kts | 301° |
| 2026-05-06 19:22 | 30.06041 | -111.47820 | 30039 ft | 479 kts | 301° |
| 2026-05-06 19:22 | 30.10355 | -111.53681 | 30038 ft | 479 kts | 300° |
| 2026-05-06 19:23 | 30.14650 | -111.59566 | 30040 ft | 479 kts | 300° |
| 2026-05-06 19:23 | 30.18933 | -111.65452 | 30022 ft | 479 kts | 300° |
| 2026-05-06 19:24 | 30.23210 | -111.71341 | 30018 ft | 478 kts | 300° |
| 2026-05-06 19:24 | 30.27501 | -111.77225 | 30014 ft | 479 kts | 301° |
| 2026-05-06 19:25 | 30.31797 | -111.83096 | 30009 ft | 479 kts | 300° |
| 2026-05-06 19:25 | 30.36090 | -111.88990 | 30004 ft | 479 kts | 300° |
| 2026-05-06 19:26 | 30.40363 | -111.94881 | 30002 ft | 479 kts | 300° |
| 2026-05-06 19:26 | 30.44627 | -112.00781 | 30002 ft | 478 kts | 300° |
| 2026-05-06 19:27 | 30.48916 | -112.06692 | 30001 ft | 479 kts | 301° |
| 2026-05-06 19:27 | 30.53188 | -112.12586 | 30001 ft | 479 kts | 301° |
| 2026-05-06 19:28 | 30.57456 | -112.18511 | 30007 ft | 479 kts | 300° |
| 2026-05-06 19:28 | 30.61735 | -112.24467 | 30013 ft | 480 kts | 299° |
| 2026-05-06 19:29 | 30.65991 | -112.30409 | 30011 ft | 479 kts | 299° |
| 2026-05-06 19:29 | 30.70259 | -112.36340 | 30006 ft | 480 kts | 300° |
| 2026-05-06 19:30 | 30.74544 | -112.42283 | 30012 ft | 479 kts | 299° |
| 2026-05-06 19:30 | 30.78804 | -112.48225 | 30016 ft | 479 kts | 300° |
| 2026-05-06 19:31 | 30.83049 | -112.54197 | 30015 ft | 479 kts | 299° |
| 2026-05-06 19:31 | 30.88630 | -112.62076 | 30057 ft | 472 kts | 299° |
| 2026-05-06 19:32 | 30.92849 | -112.67974 | 30071 ft | 473 kts | 299° |
| 2026-05-06 19:32 | 30.97045 | -112.73858 | 30076 ft | 473 kts | 299° |
| 2026-05-06 19:33 | 31.01242 | -112.79772 | 30081 ft | 477 kts | 300° |
| 2026-05-06 19:33 | 31.05464 | -112.85739 | 30084 ft | 476 kts | 300° |
| 2026-05-06 19:34 | 31.09671 | -112.91695 | 30085 ft | 476 kts | 300° |
| 2026-05-06 19:34 | 31.13894 | -112.97637 | 30085 ft | 476 kts | 300° |
| 2026-05-06 19:35 | 31.18115 | -113.03606 | 30084 ft | 476 kts | 300° |
| 2026-05-06 19:35 | 31.22310 | -113.09567 | 30083 ft | 476 kts | 300° |
| 2026-05-06 19:36 | 31.26503 | -113.15541 | 30083 ft | 476 kts | 300° |
| 2026-05-06 19:36 | 31.30703 | -113.21538 | 30081 ft | 478 kts | 302° |
| 2026-05-06 19:37 | 31.34919 | -113.27527 | 30078 ft | 478 kts | 303° |
| 2026-05-06 19:37 | 31.38970 | -113.33721 | 30077 ft | 482 kts | 299° |
| 2026-05-06 19:38 | 31.42641 | -113.40222 | 30075 ft | 478 kts | 298° |
| 2026-05-06 19:38 | 31.46301 | -113.46756 | 30074 ft | 479 kts | 298° |
| 2026-05-06 19:39 | 31.49931 | -113.53283 | 30074 ft | 479 kts | 298° |
| 2026-05-06 19:39 | 31.53526 | -113.59826 | 30073 ft | 479 kts | 298° |
| 2026-05-06 19:40 | 31.57145 | -113.66379 | 30074 ft | 479 kts | 298° |
| 2026-05-06 19:40 | 31.60795 | -113.72917 | 30075 ft | 479 kts | 298° |
| 2026-05-06 19:41 | 31.64427 | -113.79456 | 30076 ft | 480 kts | 298° |
| 2026-05-06 19:41 | 31.68078 | -113.86052 | 30077 ft | 483 kts | 298° |
| 2026-05-06 19:42 | 31.71725 | -113.92662 | 30078 ft | 482 kts | 298° |
| 2026-05-06 19:42 | 31.75375 | -113.99253 | 30077 ft | 482 kts | 299° |
| 2026-05-06 19:43 | 31.79056 | -114.05865 | 30074 ft | 488 kts | 300° |
| 2026-05-06 19:43 | 31.82746 | -114.12539 | 30072 ft | 486 kts | 300° |
| 2026-05-06 19:44 | 31.86400 | -114.19186 | 30072 ft | 484 kts | 300° |
| 2026-05-06 19:44 | 31.90031 | -114.25814 | 30071 ft | 485 kts | 300° |
| 2026-05-06 19:45 | 31.93754 | -114.32584 | 30072 ft | 497 kts | 302° |
| 2026-05-06 19:45 | 31.97497 | -114.39373 | 30070 ft | 493 kts | 302° |
| 2026-05-06 19:46 | 32.01209 | -114.46158 | 30068 ft | 493 kts | 299° |
| 2026-05-06 19:46 | 32.04940 | -114.53023 | 30070 ft | 496 kts | 301° |
| 2026-05-06 19:47 | 32.08612 | -114.59826 | 30070 ft | 493 kts | 301° |
| 2026-05-06 19:47 | 32.12315 | -114.66619 | 30071 ft | 493 kts | 302° |
| 2026-05-06 19:48 | 32.16019 | -114.73425 | 30071 ft | 493 kts | 301° |
| 2026-05-06 19:48 | 32.19704 | -114.80237 | 30072 ft | 488 kts | 301° |
| 2026-05-06 19:49 | 32.23279 | -114.86873 | 30072 ft | 477 kts | 302° |
| 2026-05-06 19:49 | 32.26837 | -114.93485 | 30073 ft | 474 kts | 304° |
| 2026-05-06 19:50 | 32.30378 | -115.00061 | 30071 ft | 478 kts | 306° |
| 2026-05-06 19:50 | 32.34041 | -115.06780 | 30071 ft | 496 kts | 306° |
| 2026-05-06 19:51 | 32.37840 | -115.13783 | 30074 ft | 512 kts | 306° |
| 2026-05-06 19:51 | 32.41635 | -115.20847 | 30075 ft | 508 kts | 306° |
| 2026-05-06 19:52 | 32.45423 | -115.27940 | 30076 ft | 509 kts | 306° |
| 2026-05-06 19:52 | 32.49167 | -115.34976 | 30075 ft | 506 kts | 306° |
| 2026-05-06 19:53 | 32.52915 | -115.42058 | 30074 ft | 507 kts | 306° |
| 2026-05-06 19:53 | 32.56672 | -115.49142 | 30288 ft | 510 kts | 306° |
| 2026-05-06 19:54 | 32.58541 | -115.52675 | 30900 ft | 506 kts | 306° |
| 2026-05-06 19:54 | 32.60401 | -115.56177 | 31679 ft | 497 kts | 306° |
| 2026-05-06 19:54 | 32.62230 | -115.59622 | 32491 ft | 488 kts | 306° |
| 2026-05-06 19:54 | 32.64035 | -115.62975 | 33119 ft | 483 kts | 306° |
| 2026-05-06 19:55 | 32.65837 | -115.66330 | 33592 ft | 480 kts | 305° |
| 2026-05-06 19:55 | 32.67620 | -115.69667 | 33999 ft | 478 kts | 305° |
| 2026-05-06 19:55 | 32.69392 | -115.73001 | 34393 ft | 476 kts | 304° |
| 2026-05-06 19:55 | 32.71142 | -115.76307 | 34764 ft | 475 kts | 304° |
| 2026-05-06 19:56 | 32.72896 | -115.79631 | 35051 ft | 476 kts | 304° |
| 2026-05-06 19:56 | 32.74659 | -115.82979 | 35139 ft | 480 kts | 305° |
| 2026-05-06 19:56 | 32.76429 | -115.86348 | 35400 ft | 480 kts | 304° |
| 2026-05-06 19:56 | 32.78182 | -115.89692 | 35728 ft | 480 kts | 305° |
| 2026-05-06 19:57 | 32.81745 | -115.96500 | 35804 ft | 489 kts | 305° |
| 2026-05-06 19:57 | 32.83534 | -115.99923 | 36038 ft | 489 kts | 305° |
| 2026-05-06 19:57 | 32.85354 | -116.03358 | 36073 ft | 490 kts | 305° |
| 2026-05-06 19:58 | 32.88945 | -116.10180 | 36073 ft | 487 kts | 305° |
| 2026-05-06 19:58 | 32.92529 | -116.17043 | 36072 ft | 488 kts | 305° |
| 2026-05-06 19:59 | 32.96096 | -116.23903 | 36071 ft | 488 kts | 305° |
| 2026-05-06 19:59 | 32.99674 | -116.30807 | 36073 ft | 492 kts | 305° |
| 2026-05-06 20:00 | 33.03292 | -116.37795 | 36073 ft | 495 kts | 305° |
| 2026-05-06 20:00 | 33.06894 | -116.44757 | 36077 ft | 494 kts | 305° |
| 2026-05-06 20:01 | 33.10492 | -116.51721 | 36077 ft | 495 kts | 306° |
| 2026-05-06 20:01 | 33.14317 | -116.58514 | 36087 ft | 489 kts | 314° |
| 2026-05-06 20:02 | 33.19004 | -116.64339 | 36093 ft | 487 kts | 318° |
| 2026-05-06 20:02 | 33.23801 | -116.70098 | 36104 ft | 490 kts | 318° |
| 2026-05-06 20:03 | 33.28565 | -116.75841 | 36110 ft | 483 kts | 319° |
| 2026-05-06 20:03 | 33.33215 | -116.81464 | 36115 ft | 473 kts | 319° |
| 2026-05-06 20:04 | 33.37861 | -116.87093 | 36121 ft | 478 kts | 319° |
| 2026-05-06 20:04 | 33.42532 | -116.92708 | 36126 ft | 474 kts | 319° |
| 2026-05-06 20:05 | 33.47177 | -116.98317 | 36131 ft | 475 kts | 319° |
| 2026-05-06 20:05 | 33.51814 | -117.03957 | 36127 ft | 478 kts | 319° |
| 2026-05-06 20:06 | 33.56466 | -117.09649 | 36135 ft | 474 kts | 319° |
| 2026-05-06 20:06 | 33.61077 | -117.15291 | 36135 ft | 475 kts | 319° |
| 2026-05-06 20:07 | 33.65730 | -117.20936 | 36134 ft | 475 kts | 319° |
| 2026-05-06 20:07 | 33.70360 | -117.26586 | 36130 ft | 476 kts | 319° |
| 2026-05-06 20:08 | 33.74996 | -117.32268 | 36128 ft | 480 kts | 319° |
| 2026-05-06 20:08 | 33.79697 | -117.38044 | 36125 ft | 487 kts | 320° |
| 2026-05-06 20:09 | 33.84462 | -117.43914 | 36128 ft | 489 kts | 319° |
| 2026-05-06 20:09 | 33.89164 | -117.49688 | 36132 ft | 483 kts | 320° |
| 2026-05-06 20:10 | 33.94007 | -117.55281 | 36133 ft | 481 kts | 325° |
| 2026-05-06 20:10 | 33.99239 | -117.60256 | 36133 ft | 479 kts | 327° |
| 2026-05-06 20:11 | 34.04435 | -117.65260 | 36132 ft | 479 kts | 326° |
| 2026-05-06 20:11 | 34.09616 | -117.70324 | 36133 ft | 480 kts | 326° |
| 2026-05-06 20:12 | 34.14822 | -117.75443 | 36135 ft | 486 kts | 326° |
| 2026-05-06 20:12 | 34.20015 | -117.80568 | 36134 ft | 481 kts | 326° |
| 2026-05-06 20:13 | 34.25199 | -117.85693 | 36134 ft | 483 kts | 326° |
| 2026-05-06 20:13 | 34.30387 | -117.90828 | 36132 ft | 481 kts | 326° |
| 2026-05-06 20:14 | 34.35561 | -117.95957 | 36132 ft | 481 kts | 326° |
| 2026-05-06 20:14 | 34.40741 | -118.01045 | 36127 ft | 481 kts | 326° |
| 2026-05-06 20:15 | 34.45977 | -118.06148 | 36115 ft | 487 kts | 325° |
| 2026-05-06 20:15 | 34.51214 | -118.11316 | 36116 ft | 481 kts | 326° |
| 2026-05-06 20:16 | 34.56363 | -118.16463 | 36106 ft | 482 kts | 324° |
| 2026-05-06 20:16 | 34.61544 | -118.21653 | 36105 ft | 482 kts | 325° |
| 2026-05-06 20:17 | 34.66699 | -118.26826 | 36101 ft | 482 kts | 325° |
| 2026-05-06 20:17 | 34.71882 | -118.32004 | 36101 ft | 483 kts | 326° |
| 2026-05-06 20:18 | 34.75337 | -118.35455 | 36097 ft | 483 kts | 325° |
| 2026-05-06 20:18 | 34.82275 | -118.42434 | 36105 ft | 484 kts | 326° |
| 2026-05-06 20:19 | 34.87417 | -118.47627 | 36101 ft | 480 kts | 326° |
| 2026-05-06 20:19 | 34.92559 | -118.52846 | 36102 ft | 482 kts | 326° |
| 2026-05-06 20:20 | 34.97716 | -118.58054 | 36107 ft | 481 kts | 326° |
| 2026-05-06 20:20 | 35.02895 | -118.63211 | 36112 ft | 481 kts | 326° |
| 2026-05-06 20:21 | 35.08054 | -118.68393 | 36127 ft | 484 kts | 324° |
| 2026-05-06 20:21 | 35.13265 | -118.73678 | 36138 ft | 487 kts | 326° |
| 2026-05-06 20:22 | 35.18415 | -118.78919 | 36136 ft | 481 kts | 325° |
| 2026-05-06 20:22 | 35.23574 | -118.84192 | 36140 ft | 484 kts | 325° |
| 2026-05-06 20:23 | 35.28717 | -118.89459 | 36141 ft | 481 kts | 325° |
| 2026-05-06 20:23 | 35.33834 | -118.94705 | 36142 ft | 481 kts | 325° |
| 2026-05-06 20:24 | 35.38955 | -118.99962 | 36141 ft | 481 kts | 325° |
| 2026-05-06 20:24 | 35.44111 | -119.05259 | 36148 ft | 484 kts | 325° |
| 2026-05-06 20:25 | 35.46773 | -119.07705 | 36137 ft | 472 kts | 334° |
| 2026-05-06 20:25 | 35.49743 | -119.09237 | 36145 ft | 461 kts | 349° |
| 2026-05-06 20:25 | 35.56070 | -119.10379 | 36149 ft | 459 kts | 357° |
| 2026-05-06 20:26 | 35.62395 | -119.11244 | 36153 ft | 458 kts | 357° |
| 2026-05-06 20:26 | 35.67681 | -119.11959 | 36152 ft | 459 kts | 357° |
| 2026-05-06 20:27 | 35.74016 | -119.12813 | 36147 ft | 458 kts | 357° |
| 2026-05-06 20:27 | 35.80340 | -119.13664 | 36140 ft | 460 kts | 359° |
| 2026-05-06 20:28 | 35.86709 | -119.14513 | 36141 ft | 456 kts | 358° |
| 2026-05-06 20:28 | 35.92988 | -119.15348 | 36136 ft | 455 kts | 358° |
| 2026-05-06 20:29 | 35.99283 | -119.16190 | 36133 ft | 456 kts | 358° |
| 2026-05-06 20:29 | 36.05568 | -119.17033 | 36132 ft | 455 kts | 358° |
| 2026-05-06 20:30 | 36.15017 | -119.18304 | 36125 ft | 455 kts | 358° |
| 2026-05-06 20:31 | 36.21299 | -119.19147 | 36133 ft | 457 kts | 358° |
| 2026-05-06 20:31 | 36.27641 | -119.20002 | 36118 ft | 459 kts | 359° |
| 2026-05-06 20:32 | 36.33987 | -119.20859 | 36135 ft | 457 kts | 357° |
| 2026-05-06 20:32 | 36.40289 | -119.21719 | 36138 ft | 457 kts | 357° |
| 2026-05-06 20:33 | 36.46605 | -119.22583 | 36142 ft | 457 kts | 357° |
| 2026-05-06 20:33 | 36.52924 | -119.23463 | 36142 ft | 457 kts | 357° |
| 2026-05-06 20:34 | 36.59225 | -119.24344 | 36143 ft | 457 kts | 357° |
| 2026-05-06 20:34 | 36.65573 | -119.25223 | 36142 ft | 459 kts | 357° |
| 2026-05-06 20:35 | 36.71899 | -119.26101 | 36139 ft | 458 kts | 356° |
| 2026-05-06 20:35 | 36.78237 | -119.26940 | 36138 ft | 458 kts | 357° |
| 2026-05-06 20:36 | 36.84548 | -119.27727 | 36135 ft | 457 kts | 357° |
| 2026-05-06 20:36 | 36.90894 | -119.28534 | 36130 ft | 458 kts | 357° |
| 2026-05-06 20:37 | 36.97221 | -119.29360 | 36125 ft | 457 kts | 356° |
| 2026-05-06 20:37 | 37.03551 | -119.30201 | 36120 ft | 461 kts | 358° |
| 2026-05-06 20:38 | 37.09929 | -119.31059 | 36115 ft | 458 kts | 356° |
| 2026-05-06 20:38 | 37.16246 | -119.31915 | 36109 ft | 457 kts | 356° |
| 2026-05-06 20:39 | 37.22582 | -119.32778 | 36115 ft | 458 kts | 356° |
| 2026-05-06 20:39 | 37.28904 | -119.33647 | 36123 ft | 458 kts | 356° |
| 2026-05-06 20:40 | 37.35233 | -119.34524 | 36137 ft | 458 kts | 356° |
| 2026-05-06 20:40 | 37.41547 | -119.35405 | 36155 ft | 458 kts | 356° |
| 2026-05-06 20:41 | 37.47883 | -119.36294 | 36182 ft | 458 kts | 356° |
| 2026-05-06 20:41 | 37.54209 | -119.37190 | 36186 ft | 457 kts | 356° |
| 2026-05-06 20:42 | 37.60524 | -119.38094 | 36191 ft | 458 kts | 356° |
| 2026-05-06 20:42 | 37.66852 | -119.38997 | 36193 ft | 458 kts | 356° |
| 2026-05-06 20:43 | 37.73166 | -119.39899 | 36194 ft | 458 kts | 356° |
| 2026-05-06 20:43 | 37.79494 | -119.40805 | 36195 ft | 457 kts | 355° |
| 2026-05-06 20:44 | 37.85801 | -119.41714 | 36224 ft | 457 kts | 355° |
| 2026-05-06 20:44 | 37.92127 | -119.42566 | 36214 ft | 457 kts | 356° |
| 2026-05-06 20:45 | 37.98438 | -119.43405 | 36209 ft | 457 kts | 356° |
| 2026-05-06 20:45 | 38.04761 | -119.44276 | 36204 ft | 457 kts | 356° |
| 2026-05-06 20:46 | 38.11069 | -119.45167 | 36199 ft | 457 kts | 355° |
| 2026-05-06 20:46 | 38.17376 | -119.46079 | 36191 ft | 459 kts | 358° |
| 2026-05-06 20:47 | 38.23771 | -119.47005 | 36190 ft | 461 kts | 355° |
| 2026-05-06 20:47 | 38.30069 | -119.47913 | 36196 ft | 455 kts | 358° |
| 2026-05-06 20:48 | 38.36370 | -119.48739 | 36197 ft | 454 kts | 356° |
| 2026-05-06 20:48 | 38.42657 | -119.49613 | 36202 ft | 455 kts | 355° |
| 2026-05-06 20:49 | 38.48934 | -119.50533 | 36208 ft | 454 kts | 355° |
| 2026-05-06 20:49 | 38.55211 | -119.51467 | 36221 ft | 455 kts | 355° |
| 2026-05-06 20:50 | 38.61500 | -119.52355 | 36232 ft | 455 kts | 356° |
| 2026-05-06 20:50 | 38.67782 | -119.53191 | 36248 ft | 455 kts | 356° |
| 2026-05-06 20:51 | 38.74105 | -119.54041 | 36254 ft | 456 kts | 355° |
| 2026-05-06 20:51 | 38.80382 | -119.54911 | 36259 ft | 455 kts | 355° |
| 2026-05-06 20:52 | 38.86676 | -119.55798 | 36260 ft | 455 kts | 355° |
| 2026-05-06 20:52 | 38.92957 | -119.56695 | 36260 ft | 455 kts | 355° |
| 2026-05-06 20:53 | 38.99257 | -119.57601 | 36258 ft | 455 kts | 355° |
| 2026-05-06 20:53 | 39.05557 | -119.58508 | 36253 ft | 456 kts | 355° |
| 2026-05-06 20:54 | 39.11851 | -119.59427 | 36244 ft | 457 kts | 358° |
| 2026-05-06 20:54 | 39.18172 | -119.60354 | 36243 ft | 455 kts | 355° |
| 2026-05-06 20:55 | 39.24458 | -119.61284 | 36238 ft | 456 kts | 355° |
| 2026-05-06 20:55 | 39.30747 | -119.62221 | 36233 ft | 456 kts | 354° |
| 2026-05-06 20:56 | 39.37045 | -119.63165 | 36225 ft | 456 kts | 354° |
| 2026-05-06 20:56 | 39.43348 | -119.64116 | 36182 ft | 456 kts | 354° |
| 2026-05-06 20:57 | 39.49645 | -119.65059 | 36180 ft | 455 kts | 354° |
| 2026-05-06 20:57 | 39.52722 | -119.65982 | 36175 ft | 455 kts | 340° |
| 2026-05-06 20:57 | 39.55601 | -119.67676 | 36174 ft | 457 kts | 335° |
| 2026-05-06 20:58 | 39.61219 | -119.71668 | 36169 ft | 464 kts | 333° |
| 2026-05-06 20:58 | 39.66803 | -119.75806 | 36163 ft | 461 kts | 333° |
| 2026-05-06 20:59 | 39.70514 | -119.78590 | 36160 ft | 463 kts | 332° |